Time;durP1;ratioP1;P1;durP2;ratioP2;P2;SDS_P1;SDS_P2;PMS_P1;PMS_P2;Temp;Humidity;BMP_temperature;BMP_pressure;BME280_temperature;BME280_humidity;BME280_pressure;Samples;Min_cycle;Max_cycle;Signal;HPM_P1;HPM_P2
2022/02/19 00:02:12;;;;;;;;;;;5.40;99.90;;;;;;5027656;28;19952;-89
2022/02/19 00:04:38;;;;;;;;;;;5.30;99.90;;;;;;5038515;28;20297;-87
2022/02/19 00:07:04;;;;;;;;;;;5.40;99.90;;;;;;5038095;28;19909;-88
2022/02/19 00:09:30;;;;;;;;;;;5.40;99.90;;;;;;5038678;28;19915;-89
2022/02/19 00:11:56;;;;;;;;;;;5.40;99.90;;;;;;5037881;28;20328;-87
2022/02/19 00:14:22;;;;;;;;;;;5.40;99.90;;;;;;5038205;28;19915;-88
2022/02/19 00:16:47;;;;;;;;;;;5.40;99.90;;;;;;5038240;28;19915;-89
2022/02/19 00:19:14;;;;;;;;;;;5.30;99.90;;;;;;5055933;28;19909;-88
2022/02/19 00:21:50;;;;;;;;;;;5.30;99.90;;;;;;5038780;28;19908;-88
2022/02/19 00:24:16;;;;;;;;;;;5.30;99.90;;;;;;5040101;28;20369;-88
2022/02/19 00:26:44;;;;;;;;;;;5.40;99.90;;;;;;5038672;28;19944;-89
2022/02/19 00:29:09;;;;;;;;;;;5.50;99.90;;;;;;5038596;28;19915;-89
2022/02/19 00:31:35;;;;;;;;;;;5.40;99.90;;;;;;5055575;28;19912;-89
2022/02/19 00:34:04;;;;;;;;;;;5.50;99.90;;;;;;5038413;28;19915;-88
2022/02/19 00:36:32;;;;;;;;;;;5.50;99.90;;;;;;5037957;28;19908;-88
2022/02/19 00:38:58;;;;;;;;;;;5.50;99.90;;;;;;5054423;28;19915;-88
2022/02/19 00:41:27;;;;;;;;;;;5.40;99.90;;;;;;5038091;28;19912;-89
2022/02/19 00:43:53;;;;;;;;;;;5.40;99.90;;;;;;5037926;28;20041;-88
2022/02/19 00:46:18;;;;;;;;;;;5.50;99.90;;;;;;5038304;28;19974;-89
2022/02/19 00:48:44;;;;;;;;;;;5.60;99.90;;;;;;5037655;28;19938;-89
2022/02/19 00:51:10;;;;;;;;;;;5.60;99.90;;;;;;5041172;28;19912;-88
2022/02/19 00:53:35;;;;;;;;;;;5.50;99.90;;;;;;5041445;28;19966;-89
2022/02/19 00:56:01;;;;;;;;;;;5.50;99.90;;;;;;5040891;28;20377;-89
2022/02/19 00:58:27;;;;;;;;;;;5.50;99.90;;;;;;5041151;28;19908;-88
2022/02/19 01:00:53;;;;;;;;;;;5.40;99.90;;;;;;5057750;28;19915;-89
2022/02/19 01:03:18;;;;;;;;;;;5.30;99.90;;;;;;5040813;28;19912;-88
2022/02/19 01:05:44;;;;;;;;;;;5.30;99.90;;;;;;5040768;28;19908;-88
2022/02/19 01:08:10;;;;;;;;;;;5.20;99.90;;;;;;5041325;28;20325;-89
2022/02/19 01:10:37;;;;;;;;;;;5.30;99.90;;;;;;5041256;28;20002;-89
2022/02/19 01:13:03;;;;;;;;;;;5.20;99.90;;;;;;5058407;28;19961;-88
2022/02/19 01:15:29;;;;;;;;;;;5.10;99.90;;;;;;5042281;28;19913;-88
2022/02/19 01:17:56;;;;;;;;;;;4.90;99.90;;;;;;5045037;28;19965;-89
2022/02/19 01:20:24;;;;;;;;;;;5.00;99.90;;;;;;5047131;28;19908;-89
2022/02/19 01:22:50;;;;;;;;;;;4.90;99.90;;;;;;5065576;28;19916;-88
2022/02/19 01:25:16;;;;;;;;;;;4.90;99.90;;;;;;5047095;28;19983;-89
2022/02/19 01:27:41;;;;;;;;;;;4.80;99.90;;;;;;5047889;28;19908;-88
2022/02/19 01:30:10;;;;;;;;;;;4.80;99.90;;;;;;5049077;28;19938;-89
2022/02/19 01:32:36;;;;;;;;;;;4.70;99.90;;;;;;5062768;28;19995;-88
2022/02/19 01:35:02;;;;;;;;;;;4.80;99.90;;;;;;5040813;28;19981;-88
2022/02/19 01:37:28;;;;;;;;;;;4.90;99.90;;;;;;5040396;28;19908;-88
2022/02/19 01:39:53;;;;;;;;;;;4.90;99.90;;;;;;5040305;28;19916;-89
2022/02/19 01:42:19;;;;;;;;;;;4.80;99.90;;;;;;5040532;28;19913;-88
2022/02/19 01:44:46;;;;;;;;;;;4.70;99.90;;;;;;5039914;28;19917;-88
2022/02/19 01:47:12;;;;;;;;;;;4.70;99.90;;;;;;5040144;28;19916;-87
2022/02/19 01:49:38;;;;;;;;;;;4.70;99.90;;;;;;5040126;28;19931;-88
2022/02/19 01:52:04;;;;;;;;;;;4.60;99.90;;;;;;5074741;28;19917;-88
2022/02/19 01:54:30;;;;;;;;;;;4.70;99.90;;;;;;5056706;28;19908;-88
2022/02/19 01:56:58;;;;;;;;;;;4.70;99.90;;;;;;5056718;28;20336;-87
2022/02/19 01:59:24;;;;;;;;;;;4.70;99.90;;;;;;5056821;28;19914;-88
2022/02/19 02:01:49;;;;;;;;;;;4.70;99.90;;;;;;5039605;28;19987;-89
2022/02/19 02:04:15;;;;;;;;;;;4.60;99.90;;;;;;5056748;28;19966;-88
2022/02/19 02:06:44;;;;;;;;;;;4.70;99.90;;;;;;5040221;28;19909;-88
2022/02/19 02:09:10;;;;;;;;;;;4.60;99.90;;;;;;5040562;28;19946;-87
2022/02/19 02:11:36;;;;;;;;;;;4.70;99.90;;;;;;5040068;28;19967;-88
2022/02/19 02:14:01;;;;;;;;;;;4.70;99.90;;;;;;5039912;28;19931;-88
2022/02/19 02:16:41;;;;;;;;;;;4.60;99.90;;;;;;5056116;28;19908;-87
2022/02/19 02:19:08;;;;;;;;;;;4.60;99.90;;;;;;5039949;28;19995;-89
2022/02/19 02:21:39;;;;;;;;;;;4.60;99.90;;;;;;5040127;28;20254;-89
2022/02/19 02:24:06;;;;;;;;;;;4.70;99.90;;;;;;5055816;28;20481;-88
2022/02/19 02:26:32;;;;;;;;;;;4.50;99.90;;;;;;5039458;28;19955;-88
2022/02/19 02:28:58;;;;;;;;;;;4.50;99.90;;;;;;5039311;28;19916;-89
2022/02/19 02:31:23;;;;;;;;;;;4.50;99.90;;;;;;5056231;28;19908;-88
2022/02/19 02:33:50;;;;;;;;;;;4.50;99.90;;;;;;5039590;28;19939;-89
2022/02/19 02:36:16;;;;;;;;;;;4.50;99.90;;;;;;5043834;28;19949;-88
2022/02/19 02:38:42;;;;;;;;;;;4.50;99.90;;;;;;5049462;28;19962;-89
2022/02/19 02:41:08;;;;;;;;;;;4.50;99.90;;;;;;5039034;28;19912;-89
2022/02/19 02:43:33;;;;;;;;;;;4.60;99.90;;;;;;5056205;28;20011;-88
2022/02/19 02:45:59;;;;;;;;;;;4.70;99.90;;;;;;5039412;28;19916;-89
2022/02/19 02:48:28;;;;;;;;;;;4.60;99.90;;;;;;5039577;28;19912;-88
2022/02/19 02:50:54;;;;;;;;;;;4.40;99.90;;;;;;5039877;28;20342;-89
2022/02/19 02:53:20;;;;;;;;;;;4.40;99.90;;;;;;5039106;28;19982;-89
2022/02/19 02:55:45;;;;;;;;;;;4.40;99.90;;;;;;5039201;28;20357;-89
2022/02/19 02:58:11;;;;;;;;;;;4.40;99.90;;;;;;5056025;28;19944;-88
2022/02/19 03:00:37;;;;;;;;;;;4.40;99.90;;;;;;5073655;28;19909;-88
2022/02/19 03:03:02;;;;;;;;;;;4.50;99.90;;;;;;5038918;28;19948;-87
2022/02/19 03:05:28;;;;;;;;;;;4.60;99.90;;;;;;5038798;28;19969;-89
2022/02/19 03:07:54;;;;;;;;;;;4.50;99.90;;;;;;5038942;28;19912;-89
2022/02/19 03:10:20;;;;;;;;;;;4.50;99.90;;;;;;5038973;28;19915;-89
2022/02/19 03:12:46;;;;;;;;;;;4.50;99.90;;;;;;5055167;28;19999;-89
2022/02/19 03:15:15;;;;;;;;;;;4.50;99.90;;;;;;5038850;28;19912;-89
2022/02/19 03:17:40;;;;;;;;;;;4.50;99.90;;;;;;5038710;28;19908;-88
2022/02/19 03:20:08;;;;;;;;;;;4.50;99.90;;;;;;5055233;28;19954;-89
2022/02/19 03:22:36;;;;;;;;;;;4.50;99.90;;;;;;5038476;28;19915;-89
2022/02/19 03:25:02;;;;;;;;;;;4.60;99.90;;;;;;5038857;28;19912;-88
2022/02/19 03:27:28;;;;;;;;;;;4.50;99.90;;;;;;5038343;28;19909;-88
2022/02/19 03:29:54;;;;;;;;;;;4.40;99.90;;;;;;5038629;28;20270;-88
2022/02/19 03:32:20;;;;;;;;;;;4.40;99.90;;;;;;5055175;28;19973;-88
2022/02/19 03:34:46;;;;;;;;;;;4.40;99.90;;;;;;5038751;28;19916;-88
2022/02/19 03:37:11;;;;;;;;;;;4.40;99.90;;;;;;5038594;28;20449;-88
2022/02/19 03:39:37;;;;;;;;;;;4.50;99.90;;;;;;5039029;28;19908;-88
2022/02/19 03:42:03;;;;;;;;;;;4.50;99.90;;;;;;5038263;28;19916;-88
2022/02/19 03:44:29;;;;;;;;;;;4.50;99.90;;;;;;5038519;28;19917;-89
2022/02/19 03:46:54;;;;;;;;;;;4.60;99.90;;;;;;5038314;28;19930;-88
2022/02/19 03:49:20;;;;;;;;;;;4.60;99.90;;;;;;5038589;28;19909;-87
2022/02/19 03:51:46;;;;;;;;;;;4.70;99.90;;;;;;5039864;28;20013;-88
2022/02/19 03:54:11;;;;;;;;;;;4.60;99.90;;;;;;5040885;28;19920;-88
2022/02/19 03:56:38;;;;;;;;;;;4.60;99.90;;;;;;5060621;28;19927;-87
2022/02/19 03:59:04;;;;;;;;;;;4.60;99.90;;;;;;5063854;28;19987;-87
2022/02/19 04:01:30;;;;;;;;;;;4.60;99.90;;;;;;5063817;28;19963;-87
2022/02/19 04:03:55;;;;;;;;;;;4.60;99.90;;;;;;5097804;28;19920;-88
2022/02/19 04:06:21;;;;;;;;;;;4.60;99.90;;;;;;5080205;28;19932;-89
2022/02/19 04:08:47;;;;;;;;;;;4.50;99.90;;;;;;5063728;28;19904;-87
2022/02/19 04:11:13;;;;;;;;;;;4.50;99.90;;;;;;5063106;28;19896;-88
2022/02/19 04:13:39;;;;;;;;;;;4.60;99.90;;;;;;5062366;28;19912;-88
2022/02/19 04:16:04;;;;;;;;;;;4.60;99.90;;;;;;5060867;28;19912;-88
2022/02/19 04:18:30;;;;;;;;;;;4.50;99.90;;;;;;5049533;28;19909;-89
2022/02/19 04:20:56;;;;;;;;;;;4.50;99.90;;;;;;5038993;28;19916;-89
2022/02/19 04:23:21;;;;;;;;;;;4.50;99.90;;;;;;5037716;28;19917;-87
2022/02/19 04:25:47;;;;;;;;;;;4.50;99.90;;;;;;5058323;28;19991;-89
2022/02/19 04:28:13;;;;;;;;;;;4.50;99.90;;;;;;5042737;28;19908;-89
2022/02/19 04:30:41;;;;;;;;;;;4.40;99.90;;;;;;5042101;28;19961;-88
2022/02/19 04:33:10;;;;;;;;;;;4.40;99.90;;;;;;5058979;28;19908;-89
2022/02/19 04:35:35;;;;;;;;;;;4.40;99.90;;;;;;5041917;28;19912;-89
2022/02/19 04:38:01;;;;;;;;;;;4.40;99.90;;;;;;5042115;28;20381;-88
2022/02/19 04:40:27;;;;;;;;;;;4.40;99.90;;;;;;5041763;28;19908;-88
2022/02/19 04:42:52;;;;;;;;;;;4.40;99.90;;;;;;5041976;28;19916;-88
2022/02/19 04:45:18;;;;;;;;;;;4.50;99.90;;;;;;5041799;28;19916;-89
2022/02/19 04:47:44;;;;;;;;;;;4.40;99.90;;;;;;5041750;28;20312;-88
2022/02/19 04:50:12;;;;;;;;;;;4.60;99.90;;;;;;5042710;28;19958;-89
2022/02/19 04:52:39;;;;;;;;;;;4.60;99.90;;;;;;5041673;28;20356;-89
2022/02/19 04:55:04;;;;;;;;;;;4.70;99.90;;;;;;5057881;28;19908;-89
2022/02/19 04:57:30;;;;;;;;;;;4.60;99.90;;;;;;5041376;28;19934;-89
2022/02/19 04:59:56;;;;;;;;;;;4.50;99.90;;;;;;5041794;28;19909;-88
2022/02/19 05:02:21;;;;;;;;;;;4.40;99.90;;;;;;5041362;28;20007;-88
2022/02/19 05:04:47;;;;;;;;;;;4.40;99.90;;;;;;5041182;28;19913;-88
2022/02/19 05:07:13;;;;;;;;;;;4.40;99.90;;;;;;5041076;28;19915;-88
2022/02/19 05:09:39;;;;;;;;;;;4.40;99.90;;;;;;5057940;28;20038;-88
2022/02/19 05:12:05;;;;;;;;;;;4.40;99.90;;;;;;5057728;28;19912;-88
2022/02/19 05:14:31;;;;;;;;;;;4.30;99.90;;;;;;5057838;28;19951;-88
2022/02/19 05:16:56;;;;;;;;;;;4.30;99.90;;;;;;5041018;28;19980;-88
2022/02/19 05:19:22;;;;;;;;;;;4.20;99.90;;;;;;5041154;28;19909;-89
2022/02/19 05:21:48;;;;;;;;;;;4.20;99.90;;;;;;5040901;28;20277;-88
2022/02/19 05:24:13;;;;;;;;;;;4.20;99.90;;;;;;5040822;28;19919;-87
2022/02/19 05:26:39;;;;;;;;;;;4.20;99.90;;;;;;5043437;28;19915;-88
2022/02/19 05:29:05;;;;;;;;;;;4.20;99.90;;;;;;5052211;28;19912;-87
2022/02/19 05:31:31;;;;;;;;;;;4.20;99.90;;;;;;5043203;28;19909;-89
2022/02/19 05:34:00;;;;;;;;;;;4.30;99.90;;;;;;5058064;28;19908;-89
2022/02/19 05:36:25;;;;;;;;;;;4.30;99.90;;;;;;5040166;28;20452;-89
2022/02/19 05:38:51;;;;;;;;;;;4.30;99.90;;;;;;5058298;28;19951;-88
2022/02/19 05:41:17;;;;;;;;;;;4.30;99.90;;;;;;5041323;28;19908;-89
2022/02/19 05:43:42;;;;;;;;;;;4.30;99.90;;;;;;5057507;28;20262;-88
2022/02/19 05:46:08;;;;;;;;;;;4.30;99.90;;;;;;5041030;28;19913;-89
2022/02/19 05:48:34;;;;;;;;;;;4.30;99.90;;;;;;5041282;28;20010;-88
2022/02/19 05:50:59;;;;;;;;;;;4.30;99.90;;;;;;5041151;28;19913;-88
2022/02/19 05:53:25;;;;;;;;;;;4.30;99.90;;;;;;5079485;23;20402;-74
2022/02/19 05:55:51;;;;;;;;;;;4.40;99.90;;;;;;5053901;28;20008;-74
2022/02/19 05:58:16;;;;;;;;;;;4.30;99.90;;;;;;5052803;28;20594;-75
2022/02/19 06:00:42;;;;;;;;;;;4.20;99.90;;;;;;5054135;28;19909;-75
2022/02/19 06:03:08;;;;;;;;;;;4.20;99.90;;;;;;5053873;28;19999;-74
2022/02/19 06:05:33;;;;;;;;;;;4.20;99.90;;;;;;5052548;28;19908;-75
2022/02/19 06:07:59;;;;;;;;;;;4.30;99.90;;;;;;5053955;28;20260;-75
2022/02/19 06:10:24;;;;;;;;;;;4.30;99.90;;;;;;5054063;28;20336;-74
2022/02/19 06:12:50;;;;;;;;;;;4.30;99.90;;;;;;5052573;28;19995;-74
2022/02/19 06:15:16;;;;;;;;;;;4.20;99.90;;;;;;5053837;28;20455;-74
2022/02/19 06:17:42;;;;;;;;;;;4.20;99.90;;;;;;5052400;28;20368;-75
2022/02/19 06:20:07;;;;;;;;;;;4.20;99.90;;;;;;5052551;28;20313;-75
2022/02/19 06:22:33;;;;;;;;;;;4.20;99.90;;;;;;5052574;28;19951;-74
2022/02/19 06:24:59;;;;;;;;;;;4.20;99.90;;;;;;5035778;28;19935;-74
2022/02/19 06:27:24;;;;;;;;;;;4.30;99.90;;;;;;5052146;28;19913;-75
2022/02/19 06:29:50;;;;;;;;;;;4.30;99.90;;;;;;5052364;28;19909;-75
2022/02/19 06:32:16;;;;;;;;;;;4.30;99.90;;;;;;5053495;28;19916;-74
2022/02/19 06:34:41;;;;;;;;;;;4.10;99.90;;;;;;5053491;28;19928;-74
2022/02/19 06:37:07;;;;;;;;;;;4.20;99.90;;;;;;5053463;28;20285;-75
2022/02/19 06:39:33;;;;;;;;;;;4.20;99.90;;;;;;5052343;28;19976;-74
2022/02/19 06:41:58;;;;;;;;;;;4.20;99.90;;;;;;5052122;28;19978;-74
2022/02/19 06:44:24;;;;;;;;;;;4.20;99.90;;;;;;5052081;28;19963;-75
2022/02/19 06:46:50;;;;;;;;;;;4.20;99.90;;;;;;5035122;28;20318;-74
2022/02/19 06:49:15;;;;;;;;;;;4.20;99.90;;;;;;5052066;28;19932;-74
2022/02/19 06:51:41;;;;;;;;;;;4.20;99.90;;;;;;5051797;28;20331;-74
2022/02/19 06:54:07;;;;;;;;;;;4.20;99.90;;;;;;5053091;28;19983;-74
2022/02/19 06:56:32;;;;;;;;;;;4.20;99.90;;;;;;5051657;28;19959;-74
2022/02/19 06:59:01;;;;;;;;;;;4.20;99.90;;;;;;5052949;28;20337;-74
2022/02/19 07:01:27;;;;;;;;;;;4.20;99.90;;;;;;5051593;28;19963;-75
2022/02/19 07:03:54;;;;;;;;;;;4.20;99.90;;;;;;5034999;28;19913;-74
2022/02/19 07:06:20;;;;;;;;;;;4.20;99.90;;;;;;5034812;28;19916;-74
2022/02/19 07:08:46;;;;;;;;;;;4.30;99.90;;;;;;5052985;28;20368;-75
2022/02/19 07:11:12;;;;;;;;;;;4.20;99.90;;;;;;5052878;28;19908;-74
2022/02/19 07:13:39;;;;;;;;;;;4.30;99.90;;;;;;5051487;28;20445;-74
2022/02/19 07:16:05;;;;;;;;;;;4.40;99.90;;;;;;5034793;28;20284;-74
2022/02/19 07:18:31;;;;;;;;;;;4.50;99.90;;;;;;5052734;28;19909;-74
2022/02/19 07:20:56;;;;;;;;;;;4.50;99.90;;;;;;5052515;28;19912;-74
2022/02/19 07:23:22;;;;;;;;;;;4.50;99.90;;;;;;5051266;28;19924;-75
2022/02/19 07:25:48;;;;;;;;;;;4.60;99.90;;;;;;5034542;28;19919;-74
2022/02/19 07:28:13;;;;;;;;;;;4.70;99.90;;;;;;5051318;28;19908;-74
2022/02/19 07:30:39;;;;;;;;;;;4.70;99.90;;;;;;5034618;28;20364;-74
2022/02/19 07:33:10;;;;;;;;;;;4.70;99.90;;;;;;5051256;28;20283;-74
2022/02/19 07:35:36;;;;;;;;;;;4.80;99.90;;;;;;5050867;28;20375;-74
2022/02/19 07:38:03;;;;;;;;;;;4.80;99.90;;;;;;5051346;28;19909;-74
2022/02/19 07:40:29;;;;;;;;;;;4.90;99.90;;;;;;5034669;28;19908;-74
2022/02/19 07:42:55;;;;;;;;;;;5.00;99.90;;;;;;5051030;28;19916;-74
2022/02/19 07:45:21;;;;;;;;;;;5.00;99.90;;;;;;5052370;28;19956;-74
2022/02/19 07:47:47;;;;;;;;;;;5.00;99.90;;;;;;5034408;28;19954;-74
2022/02/19 07:58:28;;;;;;;;;;;5.00;99.90;;;;;;5031448;28;20415;-74
2022/02/19 08:00:54;;;;;;;;;;;5.10;99.90;;;;;;5035493;28;19945;-74
2022/02/19 08:03:24;;;;;;;;;;;5.10;99.90;;;;;;5028780;28;20012;-74
2022/02/19 08:05:51;;;;;;;;;;;5.20;99.90;;;;;;5054781;28;19909;-74
2022/02/19 08:08:17;;;;;;;;;;;5.20;99.90;;;;;;5054715;28;19912;-74
2022/02/19 08:10:43;;;;;;;;;;;5.20;99.90;;;;;;5055621;28;20375;-75
2022/02/19 08:13:09;;;;;;;;;;;5.20;99.90;;;;;;5035966;28;20307;-74
2022/02/19 08:15:35;;;;;;;;;;;5.20;99.90;;;;;;5034343;28;19916;-74
2022/02/19 08:18:02;;;;;;;;;;;5.30;99.90;;;;;;5035902;28;19909;-75
2022/02/19 08:20:28;;;;;;;;;;;5.20;99.90;;;;;;5034516;28;19992;-74
2022/02/19 08:22:53;;;;;;;;;;;5.20;99.90;;;;;;5034627;28;20028;-74
2022/02/19 08:25:19;;;;;;;;;;;5.30;99.90;;;;;;5032287;28;19935;-74
2022/02/19 08:27:45;;;;;;;;;;;5.40;99.90;;;;;;5052471;28;20368;-74
2022/02/19 08:30:11;;;;;;;;;;;5.40;99.90;;;;;;5052235;28;19909;-75
2022/02/19 08:32:37;;;;;;;;;;;5.50;99.90;;;;;;5052780;28;19916;-74
2022/02/19 08:35:02;;;;;;;;;;;5.60;99.90;;;;;;5052867;28;20391;-75
2022/02/19 08:37:31;;;;;;;;;;;5.70;99.90;;;;;;5054172;28;19920;-74
2022/02/19 08:39:57;;;;;;;;;;;5.60;99.90;;;;;;5054243;28;20260;-75
2022/02/19 08:42:23;;;;;;;;;;;5.40;99.90;;;;;;5055662;28;20295;-74
2022/02/19 08:44:49;;;;;;;;;;;5.50;99.90;;;;;;5054231;28;19996;-74
2022/02/19 08:47:14;;;;;;;;;;;5.50;99.90;;;;;;5053074;28;19909;-74
2022/02/19 08:49:40;;;;;;;;;;;5.30;99.90;;;;;;5044279;28;19959;-74
2022/02/19 08:52:06;;;;;;;;;;;5.40;99.90;;;;;;5024625;28;20022;-74
2022/02/19 08:54:34;;;;;;;;;;;5.30;99.90;;;;;;5036875;28;19917;-74
2022/02/19 08:56:59;;;;;;;;;;;5.40;99.90;;;;;;5070400;28;20025;-74
2022/02/19 08:59:25;;;;;;;;;;;5.50;99.90;;;;;;5053785;28;19908;-76
2022/02/19 09:01:50;;;;;;;;;;;5.50;99.90;;;;;;5055296;28;19909;-75
2022/02/19 09:04:16;;;;;;;;;;;5.60;99.90;;;;;;5053578;28;19917;-76
2022/02/19 09:06:42;;;;;;;;;;;5.50;99.90;;;;;;5056191;28;19908;-77
2022/02/19 09:09:08;;;;;;;;;;;5.60;99.90;;;;;;5055419;28;20069;-74
2022/02/19 09:11:35;;;;;;;;;;;5.90;99.90;;;;;;5053527;28;19909;-75
2022/02/19 09:14:01;;;;;;;;;;;5.90;99.90;;;;;;5052362;28;19909;-75
2022/02/19 09:16:29;;;;;;;;;;;5.80;99.90;;;;;;5036818;28;19913;-74
2022/02/19 09:18:55;;;;;;;;;;;5.60;99.90;;;;;;5053578;28;19948;-75
2022/02/19 09:21:21;;;;;;;;;;;5.80;99.90;;;;;;5053306;28;19909;-75
2022/02/19 09:23:47;;;;;;;;;;;6.10;99.90;;;;;;5053141;28;19917;-75
2022/02/19 09:26:12;;;;;;;;;;;6.20;99.90;;;;;;5036808;28;19912;-75
2022/02/19 09:28:39;;;;;;;;;;;6.50;99.90;;;;;;5036457;28;19913;-75
2022/02/19 09:31:04;;;;;;;;;;;6.60;99.10;;;;;;5053414;28;19959;-75
2022/02/19 09:33:30;;;;;;;;;;;6.60;98.50;;;;;;5053006;28;19908;-75
2022/02/19 09:35:56;;;;;;;;;;;6.70;98.20;;;;;;5054448;28;20406;-75
2022/02/19 09:38:22;;;;;;;;;;;6.90;97.80;;;;;;5036550;28;19932;-75
2022/02/19 09:40:48;;;;;;;;;;;7.10;96.90;;;;;;5053191;28;19939;-75
2022/02/19 09:43:16;;;;;;;;;;;6.90;95.90;;;;;;5052895;28;19963;-75
2022/02/19 09:45:42;;;;;;;;;;;6.80;95.70;;;;;;5052852;28;19909;-75
2022/02/19 09:48:09;;;;;;;;;;;6.70;95.50;;;;;;5036257;28;19909;-75
2022/02/19 09:50:35;;;;;;;;;;;6.40;95.20;;;;;;5054436;28;20109;-75
2022/02/19 09:53:04;;;;;;;;;;;6.40;95.90;;;;;;5052610;28;19959;-75
2022/02/19 09:55:30;;;;;;;;;;;6.50;96.10;;;;;;5054219;28;19909;-75
2022/02/19 09:57:55;;;;;;;;;;;6.50;95.40;;;;;;5036345;28;19909;-76
2022/02/19 10:00:29;;;;;;;;;;;6.60;95.50;;;;;;5052878;28;19916;-76
2022/02/19 10:02:54;;;;;;;;;;;6.90;94.80;;;;;;5052592;28;19909;-75
2022/02/19 10:05:22;;;;;;;;;;;6.90;94.10;;;;;;5052737;28;19919;-75
2022/02/19 10:08:01;;;;;;;;;;;6.70;93.70;;;;;;5053694;28;19992;-75
2022/02/19 10:10:27;;;;;;;;;;;6.40;93.50;;;;;;5052516;28;20016;-75
2022/02/19 10:12:53;;;;;;;;;;;6.30;93.20;;;;;;5053610;28;19990;-75
2022/02/19 10:15:19;;;;;;;;;;;6.30;92.80;;;;;;5053674;28;19909;-75
2022/02/19 10:17:45;;;;;;;;;;;6.50;93.50;;;;;;5052275;28;19916;-76
2022/02/19 10:20:14;;;;;;;;;;;6.40;93.20;;;;;;5052353;28;19909;-75
2022/02/19 10:22:40;;;;;;;;;;;6.60;93.50;;;;;;5051705;28;20011;-75
2022/02/19 10:25:07;;;;;;;;;;;6.50;92.80;;;;;;5052111;28;19917;-75
2022/02/19 10:27:45;;;;;;;;;;;6.20;92.90;;;;;;5051963;28;19912;-75
2022/02/19 10:30:16;;;;;;;;;;;6.30;93.00;;;;;;5035726;28;19909;-75
2022/02/19 10:32:52;;;;;;;;;;;6.10;93.20;;;;;;5051990;28;19996;-75
2022/02/19 10:35:19;;;;;;;;;;;6.30;93.10;;;;;;5052377;28;20276;-75
2022/02/19 10:37:49;;;;;;;;;;;6.60;93.10;;;;;;5053333;28;19909;-75
2022/02/19 10:40:28;;;;;;;;;;;6.50;91.60;;;;;;5052104;28;19970;-75
2022/02/19 10:42:55;;;;;;;;;;;6.60;92.10;;;;;;5053152;28;19913;-75
2022/02/19 10:45:21;;;;;;;;;;;6.80;92.30;;;;;;5051949;28;20000;-75
2022/02/19 10:47:46;;;;;;;;;;;6.80;91.60;;;;;;5052048;28;20356;-75
2022/02/19 10:50:13;;;;;;;;;;;6.70;91.90;;;;;;5051923;28;19947;-75
2022/02/19 10:52:40;;;;;;;;;;;6.70;91.60;;;;;;5034916;28;19917;-74
2022/02/19 10:55:08;;;;;;;;;;;6.80;91.70;;;;;;5051622;28;19909;-75
2022/02/19 10:57:41;;;;;;;;;;;6.90;90.80;;;;;;5051613;28;19932;-74
2022/02/19 11:00:13;;;;;;;;;;;6.60;90.30;;;;;;5051496;28;19983;-74
2022/02/19 11:02:39;;;;;;;;;;;6.70;90.70;;;;;;5052895;28;20418;-76
2022/02/19 11:05:09;;;;;;;;;;;6.70;91.30;;;;;;5052980;28;19916;-75
2022/02/19 11:07:36;;;;;;;;;;;7.10;89.50;;;;;;5051615;28;19992;-76
2022/02/19 11:10:02;;;;;;;;;;;7.40;87.10;;;;;;5052705;28;20046;-75
2022/02/19 11:12:29;;;;;;;;;;;7.80;86.50;;;;;;5052682;28;20376;-75
2022/02/19 11:14:55;;;;;;;;;;;8.20;84.50;;;;;;5052565;28;19909;-75
2022/02/19 11:17:22;;;;;;;;;;;8.20;81.10;;;;;;5051340;28;19908;-75
2022/02/19 11:19:47;;;;;;;;;;;8.80;80.50;;;;;;5051143;28;19988;-76
2022/02/19 11:22:14;;;;;;;;;;;9.60;77.20;;;;;;5034466;28;19909;-75
2022/02/19 11:24:40;;;;;;;;;;;9.50;77.40;;;;;;5051011;28;20003;-76
2022/02/19 11:27:06;;;;;;;;;;;10.10;74.70;;;;;;5052695;28;19913;-76
2022/02/19 11:29:32;;;;;;;;;;;9.40;74.70;;;;;;5051333;28;19995;-76
2022/02/19 11:32:01;;;;;;;;;;;9.10;78.20;;;;;;5051142;28;20050;-75
2022/02/19 11:34:27;;;;;;;;;;;9.00;77.00;;;;;;5050272;28;19920;-75
2022/02/19 11:37:10;;;;;;;;;;;8.40;76.00;;;;;;5051016;28;19931;-75
2022/02/19 11:39:56;;;;;;;;;;;8.20;77.20;;;;;;5034690;28;19909;-75
2022/02/19 11:42:33;;;;;;;;;;;8.10;77.60;;;;;;5052420;28;20372;-75
2022/02/19 11:45:14;;;;;;;;;;;7.80;78.70;;;;;;5051233;28;20000;-76
2022/02/19 11:47:39;;;;;;;;;;;7.60;79.00;;;;;;5052150;28;19910;-76
2022/02/19 11:50:23;;;;;;;;;;;7.70;79.10;;;;;;5052448;28;19955;-76
2022/02/19 11:53:20;;;;;;;;;;;8.10;79.40;;;;;;5050873;28;19956;-76
2022/02/19 11:55:46;;;;;;;;;;;8.60;77.80;;;;;;5034104;28;19916;-75
2022/02/19 11:58:12;;;;;;;;;;;9.20;75.80;;;;;;5050908;28;19917;-76
2022/02/19 12:00:44;;;;;;;;;;;9.10;71.90;;;;;;5052342;28;19988;-75
2022/02/19 12:03:22;;;;;;;;;;;8.90;71.60;;;;;;5051964;28;19909;-76
2022/02/19 12:06:06;;;;;;;;;;;8.80;70.80;;;;;;5050831;28;20372;-75
2022/02/19 12:08:52;;;;;;;;;;;8.80;71.00;;;;;;5033953;28;20364;-75
2022/02/19 12:11:18;;;;;;;;;;;9.10;71.60;;;;;;5050671;28;19909;-76
2022/02/19 12:13:48;;;;;;;;;;;11.00;69.70;;;;;;5050903;28;19913;-76
2022/02/19 12:16:34;;;;;;;;;;;12.00;63.50;;;;;;5050587;28;20523;-76
2022/02/19 12:19:01;;;;;;;;;;;11.90;61.30;;;;;;5034399;28;20011;-75
2022/02/19 12:21:40;;;;;;;;;;;11.10;61.20;;;;;;5050733;28;19913;-75
2022/02/19 12:24:22;;;;;;;;;;;10.80;62.70;;;;;;5034014;28;19912;-76
2022/02/19 12:26:54;;;;;;;;;;;10.70;64.50;;;;;;5050300;28;19913;-75
2022/02/19 12:29:20;;;;;;;;;;;10.30;65.70;;;;;;5051797;28;19940;-75
2022/02/19 12:32:05;;;;;;;;;;;9.70;65.70;;;;;;5033940;28;19963;-76
2022/02/19 12:34:36;;;;;;;;;;;9.60;67.40;;;;;;5050343;28;19912;-75
2022/02/19 12:37:04;;;;;;;;;;;9.80;69.00;;;;;;5033967;28;19913;-76
2022/02/19 12:39:30;;;;;;;;;;;9.80;68.00;;;;;;5033846;28;19947;-75
2022/02/19 12:41:57;;;;;;;;;;;9.50;66.40;;;;;;5050594;28;19909;-75
2022/02/19 12:44:23;;;;;;;;;;;8.80;68.00;;;;;;5050377;28;19913;-75
2022/02/19 12:46:52;;;;;;;;;;;8.50;69.20;;;;;;5054675;28;19962;-75
2022/02/19 12:49:23;;;;;;;;;;;8.60;69.40;;;;;;5055386;28;19909;-75
2022/02/19 12:51:53;;;;;;;;;;;8.50;68.10;;;;;;5037646;28;19934;-76
2022/02/19 12:54:31;;;;;;;;;;;8.60;69.80;;;;;;5055588;28;20353;-76
2022/02/19 12:56:57;;;;;;;;;;;8.70;69.70;;;;;;5055130;28;19919;-75
2022/02/19 12:59:32;;;;;;;;;;;8.80;69.00;;;;;;5055158;28;19908;-75
2022/02/19 13:02:00;;;;;;;;;;;8.50;68.80;;;;;;5053784;28;19909;-75
2022/02/19 13:04:30;;;;;;;;;;;8.90;69.20;;;;;;5037196;28;19946;-75
2022/02/19 13:06:56;;;;;;;;;;;8.90;69.10;;;;;;5054995;28;19916;-75
2022/02/19 13:09:22;;;;;;;;;;;9.20;69.20;;;;;;5053571;28;20463;-76
2022/02/19 13:11:52;;;;;;;;;;;8.90;68.50;;;;;;5054903;28;19932;-76
2022/02/19 13:14:18;;;;;;;;;;;8.50;68.50;;;;;;5054716;28;19916;-75
2022/02/19 13:17:04;;;;;;;;;;;8.50;70.30;;;;;;5055024;28;19909;-76
2022/02/19 13:19:31;;;;;;;;;;;8.50;68.60;;;;;;5054473;28;19909;-76
2022/02/19 13:22:07;;;;;;;;;;;8.50;68.90;;;;;;5053595;28;20268;-75
2022/02/19 13:24:37;;;;;;;;;;;8.50;68.90;;;;;;5037197;28;19913;-75
2022/02/19 13:27:15;;;;;;;;;;;8.60;69.20;;;;;;5053400;28;19932;-75
2022/02/19 13:29:48;;;;;;;;;;;8.10;67.90;;;;;;5053977;28;20387;-75
2022/02/19 13:32:14;;;;;;;;;;;8.10;68.70;;;;;;5053589;28;19915;-75
2022/02/19 13:34:40;;;;;;;;;;;8.20;67.50;;;;;;5053341;28;19912;-75
2022/02/19 13:37:06;;;;;;;;;;;8.30;67.10;;;;;;5053372;28;19916;-75
2022/02/19 13:39:39;;;;;;;;;;;8.40;67.10;;;;;;5037081;28;19992;-75
2022/02/19 13:42:06;;;;;;;;;;;8.40;66.80;;;;;;5053312;28;19908;-76
2022/02/19 13:44:42;;;;;;;;;;;7.90;64.90;;;;;;5053284;28;20256;-75
2022/02/19 13:47:08;;;;;;;;;;;7.90;66.00;;;;;;5054237;28;19916;-75
2022/02/19 13:49:34;;;;;;;;;;;7.80;66.10;;;;;;5053275;28;20371;-75
2022/02/19 13:52:00;;;;;;;;;;;8.10;66.10;;;;;;5053102;28;19963;-74
2022/02/19 13:54:26;;;;;;;;;;;8.40;66.20;;;;;;5036248;28;19921;-75
2022/02/19 13:56:52;;;;;;;;;;;8.20;65.70;;;;;;5053014;28;19916;-75
2022/02/19 13:59:21;;;;;;;;;;;8.10;66.20;;;;;;5052913;28;20284;-75
2022/02/19 14:01:48;;;;;;;;;;;8.00;67.70;;;;;;5052898;28;19909;-75
2022/02/19 14:04:33;;;;;;;;;;;8.10;68.20;;;;;;5052385;28;20074;-75
2022/02/19 14:07:12;;;;;;;;;;;8.10;67.70;;;;;;5053870;28;19909;-75
2022/02/19 14:09:39;;;;;;;;;;;7.90;69.40;;;;;;5052699;28;19908;-76
2022/02/19 14:12:05;;;;;;;;;;;7.90;69.90;;;;;;5052444;28;19909;-75
2022/02/19 14:14:33;;;;;;;;;;;8.00;69.80;;;;;;5053865;28;20252;-75
2022/02/19 14:17:19;;;;;;;;;;;8.40;70.50;;;;;;5053661;28;19953;-75
2022/02/19 14:19:58;;;;;;;;;;;8.20;69.30;;;;;;5052204;28;20288;-75
2022/02/19 14:22:35;;;;;;;;;;;8.10;70.40;;;;;;5052369;28;19971;-75
2022/02/19 14:25:03;;;;;;;;;;;7.80;70.70;;;;;;5035872;28;19958;-75
2022/02/19 14:27:29;;;;;;;;;;;7.80;71.50;;;;;;5052106;28;19909;-71
2022/02/19 14:29:55;;;;;;;;;;;7.90;71.00;;;;;;5053353;28;20284;-71
2022/02/19 14:32:20;;;;;;;;;;;8.00;71.20;;;;;;5053162;28;19908;-72
2022/02/19 14:34:46;;;;;;;;;;;8.00;67.70;;;;;;5051976;28;19909;-72
2022/02/19 14:37:12;;;;;;;;;;;7.80;66.50;;;;;;5051835;28;19909;-72
2022/02/19 14:39:37;;;;;;;;;;;7.50;66.20;;;;;;5051931;28;19951;-72